Cdry Blue — ICOB — position and weather

sailwx.info

Track history (hours):
 
Tides and Currents Weather Stations Pressure Air Temp Water Temp Dewpoint Dewpoint Depression Visibility Wind Speed Wind Dir Waves Ship Positions

Cdry Blue

Last reported at 2014-Dec-21 21:25 UTC. Time now 2014-Dec-22 09:53 UTC.
Position N 38°19' E 013°56'.

Length 108 m; draft 6.4 m.

Type: Cargo ship. MMSI: 247289300.

Date/timePositionNaut miles runAvg speedWind from/ knotsBaromVisibWave heightAir tempDewpointWater temp
2014-Dec-21 21:25N 38°19' E 013°56'1112.7
2014-Dec-21 20:33N 38°18' E 013°42'1212.6
2014-Dec-21 19:33N 38°18' E 013°26'1312.8
2014-Dec-21 18:34N 38°17' E 013°10'1212.2
2014-Dec-21 17:33N 38°17' E 012°54'51712.3
2014-Dec-19 23:31N 38°17' E 001°56'1212.2
2014-Dec-19 22:33N 38°16' E 001°41'1312.6
2014-Dec-19 21:30N 38°16' E 001°24'1412.5
2014-Dec-19 20:21N 38°16' E 001°06'1012.6
2014-Dec-19 19:33N 38°16' E 000°53'1312.8
2014-Dec-19 18:33N 38°16' E 000°37'2512.4
2014-Dec-19 16:33N 38°16' E 000°05'  
2014-Dec-16 03:32N 39°49' E 001°13'1413.9
2014-Dec-16 02:33N 40°00' E 001°22'1614.7
2014-Dec-16 01:27N 40°14' E 001°33'1112.8
2014-Dec-16 00:33N 40°24' E 001°40'1313.2
2014-Dec-15 23:33N 40°36' E 001°49'1414.5
2014-Dec-15 22:34N 40°48' E 001°59'1414.2
2014-Dec-15 21:33N 41°02' E 002°04'  
2014-Dec-12 20:25N 41°21' E 002°09'1110.0
2014-Dec-12 19:21N 41°12' E 002°17'4 5.5
2014-Dec-12 18:32N 41°08' E 002°21'1212.0
2014-Dec-12 17:33N 40°60' E 002°32'1211.6
2014-Dec-12 16:33N 40°51' E 002°42'1212.1
2014-Dec-12 15:33N 40°42' E 002°52'1111.4
2014-Dec-12 14:33N 40°34' E 003°02'1211.6
2014-Dec-12 13:33N 40°25' E 003°12'3712.2
2014-Dec-12 10:33N 39°56' E 003°43'1211.7
2014-Dec-12 09:32N 39°50' E 003°55'  
Track history (hours):
 
Tides and Currents Weather Stations Pressure Air Temp Water Temp Dewpoint Dewpoint Depression Visibility Wind Speed Wind Dir Waves Ship Positions

Cdry Blue

Last reported at 2014-Dec-21 21:25 UTC. Time now 2014-Dec-22 09:53 UTC.
Position N 38°19' E 013°56'.

Length 108 m; draft 6.4 m.

Type: Cargo ship. MMSI: 247289300.

Date/timePositionNaut miles runAvg speedWind from/ knotsBaromVisibWave heightAir tempDewpointWater temp
2014-Dec-21 21:25N 38°19' E 013°56'1112.7
2014-Dec-21 20:33N 38°18' E 013°42'1212.6
2014-Dec-21 19:33N 38°18' E 013°26'1312.8
2014-Dec-21 18:34N 38°17' E 013°10'1212.2
2014-Dec-21 17:33N 38°17' E 012°54'51712.3
2014-Dec-19 23:31N 38°17' E 001°56'1212.2
2014-Dec-19 22:33N 38°16' E 001°41'1312.6
2014-Dec-19 21:30N 38°16' E 001°24'1412.5
2014-Dec-19 20:21N 38°16' E 001°06'1012.6
2014-Dec-19 19:33N 38°16' E 000°53'1312.8
2014-Dec-19 18:33N 38°16' E 000°37'2512.4
2014-Dec-19 16:33N 38°16' E 000°05'  
2014-Dec-16 03:32N 39°49' E 001°13'1413.9
2014-Dec-16 02:33N 40°00' E 001°22'1614.7
2014-Dec-16 01:27N 40°14' E 001°33'1112.8
2014-Dec-16 00:33N 40°24' E 001°40'1313.2
2014-Dec-15 23:33N 40°36' E 001°49'1414.5
2014-Dec-15 22:34N 40°48' E 001°59'1414.2
2014-Dec-15 21:33N 41°02' E 002°04'  
2014-Dec-12 20:25N 41°21' E 002°09'1110.0
2014-Dec-12 19:21N 41°12' E 002°17'4 5.5
2014-Dec-12 18:32N 41°08' E 002°21'1212.0
2014-Dec-12 17:33N 40°60' E 002°32'1211.6
2014-Dec-12 16:33N 40°51' E 002°42'1212.1
2014-Dec-12 15:33N 40°42' E 002°52'1111.4
2014-Dec-12 14:33N 40°34' E 003°02'1211.6
2014-Dec-12 13:33N 40°25' E 003°12'3712.2
2014-Dec-12 10:33N 39°56' E 003°43'1211.7
2014-Dec-12 09:32N 39°50' E 003°55'  

Dump ship's entire track history